Alert, Indiana
Current Conditions -  °F | °C
As of 1:50 PM on Sunday 23 Nov 2014 (Local Time) from KBAK Reporting Station
Light Rain Light Rain  
Wind Chill: 54°   Ceiling: 3000
Heat Index: 54°   Visibility: 10mi
Dew Point: 52°   Wind: 9mph
Humidity: 94%   Direction: 130°SE
Pressure: 29.67"   Gusts: NA
Location:  39.1743°N, 85.6083°W
Report Text: KBAK 231850Z 13008KT 10SM -RA BKN030 OVC036 12/11 A2967
Loading
Personal Weather Stations






























Interactive Weather Map New forecast layout! Learn more

10-Day Weather Forecast

Advertisements
Track Severe Weather on mobile